createdAt,value
2023-04-07T00:01:38.145Z,28.30
2023-04-07T00:04:07.094Z,31.97
2023-04-07T00:06:34.020Z,33.43
2023-04-07T00:09:01.001Z,31.40
2023-04-07T00:11:27.795Z,33.93
2023-04-07T00:13:57.112Z,37.03
2023-04-07T00:16:26.348Z,32.07
2023-04-07T00:18:55.337Z,32.30
2023-04-07T00:21:24.630Z,34.33
2023-04-07T00:23:53.970Z,30.60
2023-04-07T00:26:23.335Z,30.70
2023-04-07T00:28:52.362Z,32.20
2023-04-07T00:31:19.209Z,33.50
2023-04-07T00:33:49.497Z,34.90
2023-04-07T00:36:18.777Z,33.73
2023-04-07T00:38:50.004Z,38.23
2023-04-07T00:41:16.759Z,31.80
2023-04-07T00:43:46.196Z,34.40
2023-04-07T00:46:13.070Z,36.30
2023-04-07T00:48:39.830Z,35.47
2023-04-07T00:51:11.305Z,32.20
2023-04-07T00:53:40.502Z,31.43
2023-04-07T00:56:07.551Z,31.63
2023-04-07T00:58:34.297Z,33.13
2023-04-07T01:01:30.955Z,34.93
2023-04-07T01:04:02.289Z,36.57
2023-04-07T01:06:31.999Z,35.40
2023-04-07T01:09:05.386Z,34.90
2023-04-07T01:11:43.899Z,35.37
2023-04-07T01:14:11.355Z,38.60
2023-04-07T01:16:49.186Z,38.00
2023-04-07T01:19:36.732Z,33.13
2023-04-07T01:22:24.204Z,33.07
2023-04-07T01:25:43.938Z,35.13
2023-04-07T01:28:46.283Z,33.13
2023-04-07T01:31:13.772Z,39.43
2023-04-07T01:33:43.079Z,37.70
2023-04-07T01:36:12.445Z,37.90
2023-04-07T01:38:39.214Z,39.70
2023-04-07T01:41:06.229Z,40.40
2023-04-07T01:43:33.003Z,40.27
2023-04-07T01:45:59.734Z,40.57
2023-04-07T01:48:26.533Z,50.63
2023-04-07T01:50:55.814Z,43.77
2023-04-07T01:53:22.976Z,42.70
2023-04-07T01:55:49.777Z,41.97
2023-04-07T01:58:16.975Z,39.53
2023-04-07T02:00:43.773Z,42.73
2023-04-07T02:03:21.634Z,47.40
2023-04-07T02:05:49.659Z,40.47
2023-04-07T02:08:17.744Z,40.87
2023-04-07T02:10:45.816Z,44.90
2023-04-07T02:13:16.725Z,45.33
2023-04-07T02:15:44.258Z,47.90
2023-04-07T02:18:12.922Z,48.30
2023-04-07T02:20:40.098Z,46.27
2023-04-07T02:23:10.698Z,43.63
2023-04-07T02:25:39.713Z,51.40
2023-04-07T02:28:07.167Z,46.53
2023-04-07T02:30:36.524Z,44.53
2023-04-07T02:33:05.650Z,53.63
2023-04-07T02:35:39.371Z,48.23
2023-04-07T02:38:08.414Z,44.63
2023-04-07T02:40:36.711Z,51.87
2023-04-07T02:43:05.179Z,45.83
2023-04-07T02:45:31.993Z,45.70
2023-04-07T02:48:01.051Z,52.90
2023-04-07T02:50:29.217Z,44.67
2023-04-07T02:52:56.741Z,50.83
2023-04-07T02:55:24.022Z,44.47
2023-04-07T02:57:58.500Z,47.20
2023-04-07T03:00:28.162Z,47.10
2023-04-07T03:03:00.104Z,46.03
2023-04-07T03:05:27.238Z,52.43
2023-04-07T03:07:54.407Z,46.03
2023-04-07T03:10:23.824Z,45.43
2023-04-07T03:12:51.037Z,45.83
2023-04-07T03:15:20.155Z,47.43
2023-04-07T03:17:47.027Z,49.10
2023-04-07T03:20:14.400Z,48.73
2023-04-07T03:22:41.775Z,48.97
2023-04-07T03:25:11.094Z,51.83
2023-04-07T03:27:37.875Z,48.33
2023-04-07T03:30:05.057Z,48.70
2023-04-07T03:32:36.514Z,54.00
2023-04-07T03:35:03.393Z,53.93
2023-04-07T03:37:30.796Z,49.50
2023-04-07T03:39:57.942Z,50.90
2023-04-07T03:42:27.255Z,53.30
2023-04-07T03:44:56.193Z,54.43
2023-04-07T03:47:23.340Z,48.13
2023-04-07T03:49:50.533Z,51.40
2023-04-07T03:52:17.801Z,50.00
2023-04-07T03:54:44.546Z,50.13
2023-04-07T03:57:11.356Z,49.53
2023-04-07T03:59:41.479Z,53.30
2023-04-07T04:02:08.895Z,50.87
2023-04-07T04:04:36.481Z,53.23
2023-04-07T04:07:03.746Z,56.30
2023-04-07T04:09:31.063Z,56.43
2023-04-07T04:11:58.296Z,57.47
2023-04-07T04:14:25.097Z,51.13
2023-04-07T04:16:54.139Z,49.07
2023-04-07T04:19:21.494Z,54.83
2023-04-07T04:21:48.643Z,50.37
2023-04-07T04:24:19.907Z,55.23
2023-04-07T04:26:46.717Z,54.37
2023-04-07T04:29:13.860Z,54.53
2023-04-07T04:31:40.701Z,52.00
2023-04-07T04:34:07.730Z,47.60
2023-04-07T04:36:38.389Z,51.63
2023-04-07T04:39:05.678Z,50.63
2023-04-07T04:41:32.914Z,53.37
2023-04-07T04:44:01.941Z,52.57
2023-04-07T04:46:31.934Z,47.13
2023-04-07T04:48:58.844Z,51.17
2023-04-07T04:51:26.331Z,45.07
2023-04-07T04:53:53.675Z,51.83
2023-04-07T04:56:21.406Z,49.90
2023-04-07T04:58:48.189Z,50.63
2023-04-07T05:01:15.684Z,53.90
2023-04-07T05:03:42.797Z,54.97
2023-04-07T05:06:10.404Z,50.80
2023-04-07T05:08:37.673Z,47.93
2023-04-07T05:11:04.477Z,50.53
2023-04-07T05:13:31.676Z,53.47
2023-04-07T05:15:58.898Z,54.33
2023-04-07T05:18:26.227Z,55.60
2023-04-07T05:20:52.973Z,52.37
2023-04-07T05:23:19.738Z,58.33
2023-04-07T05:25:46.915Z,49.20
2023-04-07T05:28:14.066Z,48.30
2023-04-07T05:30:40.841Z,51.37
2023-04-07T05:33:10.403Z,51.57
2023-04-07T05:35:37.590Z,53.70
2023-04-07T05:38:04.761Z,48.70
2023-04-07T05:40:31.584Z,55.07
2023-04-07T05:43:01.002Z,50.97
2023-04-07T05:45:27.745Z,51.07
2023-04-07T05:47:54.945Z,49.67
2023-04-07T05:50:24.592Z,54.60
2023-04-07T05:52:54.097Z,48.33
2023-04-07T05:55:21.563Z,51.47
2023-04-07T05:57:49.383Z,51.57
2023-04-07T06:00:19.788Z,48.63
2023-04-07T06:02:49.118Z,47.50
2023-04-07T06:05:16.245Z,45.77
2023-04-07T06:07:43.424Z,47.50
2023-04-07T06:10:10.506Z,48.83
2023-04-07T06:12:37.297Z,48.57
2023-04-07T06:15:04.273Z,45.17
2023-04-07T06:17:31.472Z,46.27
2023-04-07T06:19:58.294Z,48.40
2023-04-07T06:22:27.258Z,45.97
2023-04-07T06:24:54.103Z,52.43
2023-04-07T06:27:25.670Z,48.90
2023-04-07T06:29:52.390Z,47.23
2023-04-07T06:32:21.825Z,49.73
2023-04-07T06:34:51.180Z,47.97
2023-04-07T06:37:18.275Z,46.80
2023-04-07T06:39:45.882Z,48.77
2023-04-07T06:42:13.048Z,46.20
2023-04-07T06:44:40.345Z,44.90
2023-04-07T06:47:07.539Z,46.23
2023-04-07T06:49:36.568Z,49.93
2023-04-07T06:52:06.554Z,44.30
2023-04-07T06:54:33.425Z,48.37
2023-04-07T06:57:01.589Z,47.37
2023-04-07T06:59:28.769Z,44.67
2023-04-07T07:01:55.790Z,48.07
2023-04-07T07:04:22.755Z,42.93
2023-04-07T07:06:49.708Z,46.63
2023-04-07T07:09:16.959Z,43.77
2023-04-07T07:11:44.149Z,46.07
2023-04-07T07:14:11.301Z,47.77
2023-04-07T07:16:38.085Z,49.23
2023-04-07T07:19:07.192Z,42.13
2023-04-07T07:21:34.345Z,46.13
2023-04-07T07:24:01.214Z,47.93
2023-04-07T07:26:30.487Z,42.67
2023-04-07T07:28:59.825Z,48.37
2023-04-07T07:31:26.619Z,45.40
2023-04-07T07:33:53.402Z,45.10
2023-04-07T07:36:22.544Z,45.53
2023-04-07T07:38:52.978Z,40.50
2023-04-07T07:41:21.135Z,41.30
2023-04-07T07:43:48.270Z,42.03
2023-04-07T07:46:15.563Z,41.10
2023-04-07T07:48:42.406Z,46.53
2023-04-07T07:51:09.241Z,44.33
2023-04-07T07:53:36.414Z,42.80
2023-04-07T07:56:03.627Z,48.50
2023-04-07T07:58:32.703Z,40.70
2023-04-07T08:00:59.484Z,45.93
2023-04-07T08:03:26.488Z,41.97
2023-04-07T08:05:53.391Z,39.33
2023-04-07T08:08:20.816Z,38.10
2023-04-07T08:10:48.937Z,45.10
2023-04-07T08:13:16.076Z,43.17
2023-04-07T08:15:45.565Z,41.73
2023-04-07T08:18:12.372Z,40.90
2023-04-07T08:20:39.621Z,34.47
2023-04-07T08:23:06.368Z,39.90
2023-04-07T08:25:33.552Z,40.53
2023-04-07T08:28:00.527Z,34.07
2023-04-07T08:30:29.706Z,32.90
2023-04-07T08:32:56.892Z,33.80
2023-04-07T08:35:24.244Z,35.50
2023-04-07T08:37:53.457Z,37.17
2023-04-07T08:40:25.352Z,33.43
2023-04-07T08:42:52.717Z,40.17
2023-04-07T08:45:19.990Z,35.37
2023-04-07T08:47:50.484Z,31.13
2023-04-07T08:50:18.396Z,32.23
2023-04-07T08:52:46.642Z,31.63
2023-04-07T08:55:13.427Z,34.43
2023-04-07T08:57:45.424Z,33.90
2023-04-07T09:00:14.779Z,32.53
2023-04-07T09:02:44.569Z,31.30
2023-04-07T09:05:17.075Z,29.77
2023-04-07T09:07:46.793Z,28.20
2023-04-07T09:10:13.998Z,29.50
2023-04-07T09:12:41.246Z,28.90
2023-04-07T09:15:08.424Z,32.40
2023-04-07T09:17:35.720Z,28.27
2023-04-07T09:20:03.029Z,35.83
2023-04-07T09:22:43.486Z,35.50
2023-04-07T09:25:20.297Z,27.83
2023-04-07T09:28:03.516Z,26.13
2023-04-07T09:30:31.311Z,29.60
2023-04-07T09:32:58.712Z,31.40
2023-04-07T09:35:28.851Z,28.13
2023-04-07T09:38:05.603Z,28.80
2023-04-07T09:40:34.914Z,31.47
2023-04-07T09:43:02.256Z,30.60
2023-04-07T09:45:39.285Z,31.03
2023-04-07T09:48:07.852Z,29.93
2023-04-07T09:50:38.460Z,28.00
2023-04-07T09:53:05.757Z,31.40
2023-04-07T09:55:33.910Z,25.10
2023-04-07T09:58:00.949Z,28.67
2023-04-07T10:00:30.094Z,25.63
2023-04-07T10:02:57.953Z,27.77
2023-04-07T10:05:27.611Z,29.97
2023-04-07T10:07:54.717Z,28.77
2023-04-07T10:10:21.945Z,30.70
2023-04-07T10:12:51.342Z,25.70
2023-04-07T10:15:18.514Z,27.80
2023-04-07T10:17:48.736Z,30.33
2023-04-07T10:20:17.417Z,21.93
2023-04-07T10:22:44.562Z,30.23
2023-04-07T10:25:13.335Z,27.80
2023-04-07T10:27:51.749Z,26.40
2023-04-07T10:30:25.705Z,28.30
2023-04-07T10:32:53.508Z,32.73
2023-04-07T10:35:22.028Z,28.10
2023-04-07T10:38:10.597Z,29.23
2023-04-07T10:40:38.029Z,30.23
2023-04-07T10:43:06.562Z,26.33
2023-04-07T10:45:53.804Z,30.20
2023-04-07T10:48:23.433Z,27.47
2023-04-07T10:51:14.361Z,30.00
2023-04-07T10:54:29.100Z,27.00
2023-04-07T10:57:12.018Z,25.60
2023-04-07T10:59:45.092Z,30.23
2023-04-07T11:02:15.051Z,28.73
2023-04-07T11:04:45.940Z,26.93
2023-04-07T11:07:13.913Z,24.40
2023-04-07T11:09:41.037Z,26.60
2023-04-07T11:12:22.319Z,25.10
2023-04-07T11:14:59.833Z,21.27
2023-04-07T11:17:28.240Z,18.63
2023-04-07T11:19:57.569Z,22.17
2023-04-07T11:22:30.038Z,21.17
2023-04-07T11:24:59.919Z,25.57
2023-04-07T11:27:29.298Z,23.77
2023-04-07T11:29:57.073Z,21.13
2023-04-07T11:32:29.896Z,21.67
2023-04-07T11:34:57.534Z,21.23
2023-04-07T11:37:29.036Z,23.10
2023-04-07T11:39:56.898Z,22.57
2023-04-07T11:42:39.459Z,23.60
2023-04-07T11:45:16.105Z,20.07
2023-04-07T11:47:43.171Z,19.33
2023-04-07T11:50:14.330Z,25.77
2023-04-07T11:52:48.398Z,24.87
2023-04-07T11:55:24.607Z,21.00
2023-04-07T11:57:52.038Z,22.93
2023-04-07T12:00:19.817Z,17.33
2023-04-07T12:02:49.316Z,16.90
2023-04-07T12:05:16.181Z,22.43
2023-04-07T12:07:52.858Z,19.23
2023-04-07T12:10:23.879Z,16.43
2023-04-07T12:12:51.654Z,19.63
2023-04-07T12:15:18.847Z,17.33
2023-04-07T12:17:49.165Z,17.77
2023-04-07T12:20:16.437Z,18.43
2023-04-07T12:22:43.227Z,20.63
2023-04-07T12:25:12.781Z,17.67
2023-04-07T12:27:43.649Z,17.40
2023-04-07T12:30:11.751Z,25.13
2023-04-07T12:32:39.128Z,20.13
2023-04-07T12:35:06.443Z,21.47
2023-04-07T12:37:35.839Z,20.87
2023-04-07T12:40:03.035Z,20.50
2023-04-07T12:42:29.835Z,15.47
2023-04-07T12:44:57.238Z,16.67
2023-04-07T12:47:24.507Z,14.67
2023-04-07T12:49:51.350Z,13.17
2023-04-07T12:52:20.971Z,8.80
2023-04-07T12:54:49.939Z,5.30
2023-04-07T12:57:16.816Z,4.60
2023-04-07T12:59:44.848Z,4.03
2023-04-07T13:02:13.662Z,4.37
2023-04-07T13:04:40.859Z,3.67
2023-04-07T13:07:09.721Z,6.30
2023-04-07T13:09:43.432Z,5.53
2023-04-07T13:12:13.570Z,4.23
2023-04-07T13:14:52.966Z,4.87
2023-04-07T13:17:24.286Z,3.43
2023-04-07T13:19:54.316Z,3.40
2023-04-07T13:22:26.824Z,4.57
2023-04-07T13:24:53.676Z,3.90
2023-04-07T13:27:21.278Z,4.97
2023-04-07T13:29:49.038Z,3.87
2023-04-07T13:32:17.031Z,5.23
2023-04-07T13:34:44.490Z,4.50
2023-04-07T13:37:11.409Z,4.37
2023-04-07T13:39:40.446Z,4.63
2023-04-07T13:42:07.453Z,4.20
2023-04-07T13:44:34.741Z,4.33
2023-04-07T13:47:02.074Z,4.03
2023-04-07T13:49:31.806Z,5.13
2023-04-07T13:51:58.982Z,4.93
2023-04-07T13:54:27.997Z,6.90
2023-04-07T13:56:54.732Z,4.70
2023-04-07T13:59:24.393Z,4.70
2023-04-07T14:01:53.779Z,6.47
2023-04-07T14:04:21.155Z,5.97
2023-04-07T14:06:48.342Z,4.87
2023-04-07T14:09:15.548Z,6.33
2023-04-07T14:11:42.406Z,5.33
2023-04-07T14:14:09.650Z,6.23
2023-04-07T14:16:40.827Z,5.00
2023-04-07T14:19:07.607Z,5.63
2023-04-07T14:21:34.393Z,7.73
2023-04-07T14:24:01.579Z,4.53
2023-04-07T14:26:30.589Z,5.97
2023-04-07T14:28:59.820Z,7.07
2023-04-07T14:31:26.720Z,11.23
2023-04-07T14:33:55.517Z,4.13
2023-04-07T14:36:22.792Z,4.30
2023-04-07T14:38:51.769Z,5.47
2023-04-07T14:41:18.778Z,4.00
2023-04-07T14:43:48.412Z,3.70
2023-04-07T14:46:15.438Z,4.50
2023-04-07T14:48:42.267Z,4.70
2023-04-07T14:51:15.450Z,4.40
2023-04-07T14:53:45.888Z,5.20
2023-04-07T14:56:15.685Z,8.47
2023-04-07T14:58:42.836Z,5.63
2023-04-07T15:01:09.621Z,5.27
2023-04-07T15:03:37.083Z,5.40
2023-04-07T15:06:11.475Z,6.33
2023-04-07T15:08:38.590Z,7.30
2023-04-07T15:11:11.103Z,5.93
2023-04-07T15:13:38.322Z,5.87
2023-04-07T15:16:12.398Z,8.27
2023-04-07T15:18:42.417Z,6.10
2023-04-07T15:21:09.818Z,6.80
2023-04-07T15:23:39.146Z,6.67
2023-04-07T15:26:08.573Z,5.77
2023-04-07T15:28:35.981Z,8.07
2023-04-07T15:31:02.844Z,6.10
2023-04-07T15:33:32.354Z,7.00
2023-04-07T15:36:01.575Z,6.60
2023-04-07T15:38:29.303Z,6.37
2023-04-07T15:40:58.551Z,6.30
2023-04-07T15:43:25.707Z,8.77
2023-04-07T15:45:52.860Z,6.30
2023-04-07T15:48:21.770Z,9.30
2023-04-07T15:50:48.518Z,6.43
2023-04-07T15:53:15.267Z,6.83
2023-04-07T15:55:46.758Z,7.57
2023-04-07T15:58:13.987Z,7.73
2023-04-07T16:00:40.840Z,4.33
2023-04-07T16:03:08.344Z,5.53
2023-04-07T16:05:35.303Z,3.63
2023-04-07T16:08:02.103Z,6.73
2023-04-07T16:10:29.312Z,7.13
2023-04-07T16:13:00.762Z,6.10
2023-04-07T16:15:39.249Z,4.53
2023-04-07T16:18:10.212Z,5.47
2023-04-07T16:20:39.599Z,6.17
2023-04-07T16:23:06.354Z,4.87
2023-04-07T16:25:35.270Z,3.57
2023-04-07T16:28:04.696Z,4.90
2023-04-07T16:30:31.429Z,4.47
2023-04-07T16:33:00.367Z,7.17
2023-04-07T16:35:27.202Z,4.93
2023-04-07T16:38:04.764Z,5.00
2023-04-07T16:40:32.480Z,5.93
2023-04-07T16:42:59.267Z,7.67
2023-04-07T16:45:26.444Z,5.10
2023-04-07T16:47:55.458Z,4.00
2023-04-07T16:50:26.694Z,5.80
2023-04-07T16:52:57.631Z,8.27
2023-04-07T16:55:29.408Z,4.93
2023-04-07T16:57:58.676Z,6.60
2023-04-07T17:00:26.045Z,6.00
2023-04-07T17:02:52.941Z,6.90
2023-04-07T17:05:20.337Z,4.90
2023-04-07T17:07:49.868Z,5.53
2023-04-07T17:10:16.660Z,4.73
2023-04-07T17:12:43.629Z,3.57
2023-04-07T17:15:11.148Z,5.47
2023-04-07T17:17:39.369Z,4.20
2023-04-07T17:20:11.361Z,4.87
2023-04-07T17:22:40.594Z,4.90
2023-04-07T17:25:07.997Z,5.90
2023-04-07T17:27:35.440Z,4.60
2023-04-07T17:30:08.344Z,5.40
2023-04-07T17:32:35.509Z,7.63
2023-04-07T17:35:02.438Z,5.73
2023-04-07T17:37:29.258Z,6.17
2023-04-07T17:39:56.115Z,5.37
2023-04-07T17:42:25.580Z,6.97
2023-04-07T17:44:53.862Z,7.33
2023-04-07T17:47:23.193Z,7.57
2023-04-07T17:49:50.015Z,7.77
2023-04-07T17:52:19.027Z,6.97
2023-04-07T17:54:46.311Z,5.27
2023-04-07T17:57:15.939Z,8.10
2023-04-07T17:59:42.783Z,8.57
2023-04-07T18:02:12.193Z,8.37
2023-04-07T18:04:41.741Z,8.00
2023-04-07T18:07:09.466Z,8.23
2023-04-07T18:09:38.523Z,8.47
2023-04-07T18:12:06.338Z,7.23
2023-04-07T18:14:35.585Z,6.33
2023-04-07T18:17:02.398Z,9.23
2023-04-07T18:19:32.988Z,6.97
2023-04-07T18:22:00.994Z,7.07
2023-04-07T18:24:30.276Z,5.07
2023-04-07T18:26:59.375Z,6.43
2023-04-07T18:29:27.192Z,6.00
2023-04-07T18:31:54.373Z,7.40
2023-04-07T18:34:21.394Z,6.63
2023-04-07T18:36:48.973Z,5.43
2023-04-07T18:39:16.172Z,7.53
2023-04-07T18:41:47.397Z,5.20
2023-04-07T18:44:14.848Z,6.17
2023-04-07T18:46:41.789Z,5.47
2023-04-07T18:49:10.278Z,7.87
2023-04-07T18:51:39.661Z,5.93
2023-04-07T18:54:06.911Z,7.27
2023-04-07T18:56:35.939Z,6.23
2023-04-07T18:59:03.925Z,8.23
2023-04-07T19:01:31.436Z,9.77
2023-04-07T19:04:01.595Z,6.87
2023-04-07T19:06:30.484Z,7.43
2023-04-07T19:08:57.837Z,11.70
2023-04-07T19:11:29.380Z,6.97
2023-04-07T19:13:56.657Z,11.67
2023-04-07T19:16:26.883Z,10.10
2023-04-07T19:18:54.433Z,9.43
2023-04-07T19:21:21.629Z,9.43
2023-04-07T19:23:51.299Z,10.40
2023-04-07T19:26:18.672Z,11.57
2023-04-07T19:28:46.252Z,10.93
2023-04-07T19:31:13.150Z,10.57
2023-04-07T19:33:42.711Z,13.13
2023-04-07T19:36:09.504Z,13.30
2023-04-07T19:38:36.392Z,10.30
2023-04-07T19:41:03.326Z,12.37
2023-04-07T19:43:30.929Z,9.37
2023-04-07T19:45:58.043Z,10.10
2023-04-07T19:48:27.673Z,9.87
2023-04-07T19:50:57.056Z,10.97
2023-04-07T19:53:28.391Z,10.27
2023-04-07T19:55:55.577Z,12.93
2023-04-07T19:58:23.418Z,12.93
2023-04-07T20:00:51.697Z,11.13
2023-04-07T20:03:19.784Z,8.57
2023-04-07T20:05:46.741Z,8.83
2023-04-07T20:08:16.493Z,12.27
2023-04-07T20:10:47.710Z,11.03
2023-04-07T20:13:17.202Z,7.93
2023-04-07T20:15:44.094Z,6.33
2023-04-07T20:18:11.254Z,7.57
2023-04-07T20:20:40.341Z,7.20
2023-04-07T20:23:07.526Z,8.97
2023-04-07T20:25:34.822Z,8.63
2023-04-07T20:28:01.624Z,6.37
2023-04-07T20:30:30.626Z,7.60
2023-04-07T20:32:57.551Z,6.63
2023-04-07T20:35:26.686Z,7.63
2023-04-07T20:37:53.492Z,6.93
2023-04-07T20:40:24.954Z,6.53
2023-04-07T20:42:52.159Z,7.23
2023-04-07T20:45:21.674Z,6.17
2023-04-07T20:47:49.461Z,5.93
2023-04-07T20:50:16.310Z,7.40
2023-04-07T20:52:43.873Z,6.73
2023-04-07T20:55:15.280Z,6.50
2023-04-07T20:57:42.209Z,7.07
2023-04-07T21:00:12.193Z,7.63
2023-04-07T21:02:39.092Z,8.00
2023-04-07T21:05:08.890Z,7.70
2023-04-07T21:07:38.355Z,7.90
2023-04-07T21:10:05.606Z,8.17
2023-04-07T21:12:32.401Z,8.87
2023-04-07T21:14:59.623Z,11.77
2023-04-07T21:17:28.701Z,8.70
2023-04-07T21:19:55.668Z,8.30
2023-04-07T21:22:22.414Z,12.10
2023-04-07T21:24:53.011Z,8.27
2023-04-07T21:27:22.070Z,10.13
2023-04-07T21:29:53.550Z,9.97
2023-04-07T21:32:20.731Z,8.90
2023-04-07T21:34:49.942Z,8.70
2023-04-07T21:37:19.194Z,9.00
2023-04-07T21:39:46.647Z,12.83
2023-04-07T21:42:13.420Z,9.27
2023-04-07T21:44:40.281Z,9.13
2023-04-07T21:47:12.205Z,8.83
2023-04-07T21:49:41.393Z,9.00
2023-04-07T21:52:08.198Z,8.73
2023-04-07T21:54:34.952Z,8.60
2023-04-07T21:57:01.865Z,10.10
2023-04-07T21:59:28.749Z,8.13
2023-04-07T22:01:56.277Z,8.87
2023-04-07T22:04:26.034Z,7.93
2023-04-07T22:06:52.890Z,8.80
2023-04-07T22:09:20.071Z,9.43
2023-04-07T22:11:46.889Z,7.43
2023-04-07T22:14:14.111Z,9.07
2023-04-07T22:16:43.603Z,7.57
2023-04-07T22:19:10.470Z,7.93
2023-04-07T22:21:37.651Z,9.40
2023-04-07T22:24:07.059Z,8.20
2023-04-07T22:26:33.840Z,8.73
2023-04-07T22:29:02.849Z,10.53
2023-04-07T22:31:29.711Z,8.53
2023-04-07T22:33:56.674Z,9.33
2023-04-07T22:36:26.747Z,9.03
2023-04-07T22:38:53.537Z,9.93
2023-04-07T22:41:24.911Z,11.03
2023-04-07T22:43:51.830Z,10.33
2023-04-07T22:46:18.614Z,11.23
2023-04-07T22:48:45.447Z,10.60
2023-04-07T22:51:14.644Z,13.53
2023-04-07T22:53:41.451Z,12.87
2023-04-07T22:56:08.421Z,12.60
2023-04-07T22:58:35.335Z,13.77
2023-04-07T23:01:02.209Z,14.70
2023-04-07T23:03:29.298Z,17.67
2023-04-07T23:05:56.265Z,14.80
2023-04-07T23:08:25.469Z,17.73
2023-04-07T23:10:52.259Z,16.93
2023-04-07T23:13:21.633Z,15.57
2023-04-07T23:15:50.846Z,14.73
2023-04-07T23:18:17.636Z,16.37
2023-04-07T23:20:52.115Z,14.00
2023-04-07T23:23:18.911Z,13.93
2023-04-07T23:25:46.118Z,15.37
2023-04-07T23:28:15.550Z,17.00
2023-04-07T23:30:42.807Z,14.83
2023-04-07T23:33:12.456Z,19.17
2023-04-07T23:35:39.711Z,20.80
2023-04-07T23:38:08.848Z,16.63
2023-04-07T23:40:35.693Z,16.37
2023-04-07T23:43:04.586Z,19.20
2023-04-07T23:45:31.399Z,16.70
2023-04-07T23:47:58.337Z,18.93
2023-04-07T23:50:29.872Z,19.83
2023-04-07T23:52:59.110Z,21.57
2023-04-07T23:55:27.100Z,18.93
2023-04-07T23:57:56.419Z,18.33
